createdAt,value
2023-03-08T00:00:22.369Z,1002
2023-03-08T00:05:24.297Z,1002
2023-03-08T00:10:30.407Z,1003
2023-03-08T00:15:19.256Z,1002
2023-03-08T00:20:27.284Z,1003
2023-03-08T00:25:31.711Z,1003
2023-03-08T00:30:20.658Z,1003
2023-03-08T00:35:26.640Z,1003
2023-03-08T00:40:33.108Z,1003
2023-03-08T00:45:21.652Z,1003
2023-03-08T00:50:27.671Z,1003
2023-03-08T00:55:34.379Z,1003
2023-03-08T01:00:25.755Z,1003
2023-03-08T01:05:28.094Z,1003
2023-03-08T01:10:17.224Z,1003
2023-03-08T01:15:23.463Z,1003
2023-03-08T01:20:29.547Z,1003
2023-03-08T01:25:18.283Z,1003
2023-03-08T01:30:24.617Z,1003
2023-03-08T01:35:30.558Z,1003
2023-03-08T01:40:21.735Z,1003
2023-03-08T01:45:25.771Z,1003
2023-03-08T01:50:31.638Z,1003
2023-03-08T01:55:21.144Z,1003
2023-03-08T02:00:30.854Z,1003
2023-03-08T02:05:33.857Z,1003
2023-03-08T02:10:22.493Z,1003
2023-03-08T02:15:28.803Z,1003
2023-03-08T02:20:17.557Z,1003
2023-03-08T02:25:23.619Z,1003
2023-03-08T02:30:29.550Z,1003
2023-03-08T02:35:18.576Z,1003
2023-03-08T02:40:25.008Z,1002
2023-03-08T02:45:31.119Z,1002
2023-03-08T02:50:22.660Z,1003
2023-03-08T02:55:27.471Z,1003
2023-03-08T03:00:33.958Z,1002
2023-03-08T03:05:21.350Z,1003
2023-03-08T03:10:27.682Z,1003
2023-03-08T03:15:33.595Z,1002
2023-03-08T03:20:22.735Z,1002
2023-03-08T03:25:28.127Z,1003
2023-03-08T03:30:34.267Z,1003
2023-03-08T03:35:23.141Z,1003
2023-03-08T03:40:29.679Z,1003
2023-03-08T03:45:18.579Z,1003
2023-03-08T03:50:24.390Z,1003
2023-03-08T03:55:30.301Z,1003
2023-03-08T04:00:23.530Z,1003
2023-03-08T04:05:25.450Z,1003
2023-03-08T04:10:30.565Z,1003
2023-03-08T04:15:19.561Z,1003
2023-03-08T04:20:26.178Z,1003
2023-03-08T04:25:31.771Z,1003
2023-03-08T04:30:21.147Z,1003
2023-03-08T04:35:27.023Z,1003
2023-03-08T04:40:33.419Z,1003
2023-03-08T04:45:21.967Z,1003
2023-03-08T04:50:28.142Z,1003
2023-03-08T04:55:33.756Z,1003
2023-03-08T05:00:25.533Z,1003
2023-03-08T05:05:28.387Z,1003
2023-03-08T05:10:17.545Z,1003
2023-03-08T05:15:23.822Z,1003
2023-03-08T05:20:30.399Z,1002
2023-03-08T05:25:19.034Z,1002
2023-03-08T05:30:25.004Z,1002
2023-03-08T05:35:30.506Z,1002
2023-03-08T05:40:20.053Z,1002
2023-03-08T05:45:26.106Z,1002
2023-03-08T05:50:31.801Z,1002
2023-03-08T05:55:20.310Z,1002
2023-03-08T06:00:29.425Z,1002
2023-03-08T06:05:33.406Z,1002
2023-03-08T06:10:21.871Z,1002
2023-03-08T06:15:28.020Z,1002
2023-03-08T06:20:34.162Z,1002
2023-03-08T06:25:23.097Z,1002
2023-03-08T06:45:30.082Z,1002
2023-03-08T07:00:17.107Z,1002
2023-03-08T07:05:23.378Z,1002
2023-03-08T07:10:29.423Z,1002
2023-03-08T07:15:18.296Z,1002
2023-03-08T07:20:25.340Z,1002
2023-03-08T07:25:30.260Z,1002
2023-03-08T07:30:19.289Z,1002
2023-03-08T07:35:25.399Z,1002
2023-03-08T07:40:31.373Z,1002
2023-03-08T07:45:21.400Z,1002
2023-03-08T07:50:27.563Z,1002
2023-03-08T07:55:33.695Z,1002
2023-03-08T08:00:26.502Z,1002
2023-03-08T08:05:30.861Z,1002
2023-03-08T08:10:34.235Z,1002
2023-03-08T08:15:29.898Z,1002
2023-03-08T08:20:26.871Z,1002
2023-03-08T08:25:30.978Z,1002
2023-03-08T08:30:20.377Z,1002
2023-03-08T08:35:40.815Z,1002
2023-03-08T08:40:32.865Z,1002
2023-03-08T08:45:21.155Z,1002
2023-03-08T08:50:27.259Z,1002
2023-03-08T08:55:36.482Z,1002
2023-03-08T09:00:27.329Z,1002
2023-03-08T09:05:30.344Z,1002
2023-03-08T09:10:18.501Z,1002
2023-03-08T09:15:29.151Z,1002
2023-03-08T09:20:31.201Z,1002
2023-03-08T09:25:21.152Z,1002
2023-03-08T09:30:33.255Z,1001
2023-03-08T09:35:35.483Z,1001
2023-03-08T09:40:24.805Z,1001
2023-03-08T09:45:31.188Z,1001
2023-03-08T09:50:32.986Z,1001
2023-03-08T09:55:22.062Z,1001
2023-03-08T10:00:34.478Z,1001
2023-03-08T10:05:32.929Z,1001
2023-03-08T10:10:23.754Z,1000
2023-03-08T10:15:28.284Z,1000
2023-03-08T10:20:42.718Z,1000
2023-03-08T10:25:23.379Z,1000
2023-03-08T10:30:38.331Z,1000
2023-03-08T10:35:19.181Z,1000
2023-03-08T10:40:28.984Z,999
2023-03-08T10:45:30.193Z,999
2023-03-08T10:50:20.820Z,999
2023-03-08T10:55:27.099Z,999
2023-03-08T11:00:37.198Z,999
2023-03-08T11:05:20.962Z,999
2023-03-08T11:10:29.699Z,999
2023-03-08T11:15:39.536Z,999
2023-03-08T11:20:26.335Z,999
2023-03-08T11:25:32.107Z,999
2023-03-08T11:30:37.781Z,999
2023-03-08T11:35:26.125Z,999
2023-03-08T11:40:30.065Z,999
2023-03-08T11:45:35.009Z,999
2023-03-08T11:50:22.409Z,999
2023-03-08T11:55:28.486Z,999
2023-03-08T12:00:18.564Z,999
2023-03-08T12:05:24.088Z,999
2023-03-08T12:10:29.308Z,999
2023-03-08T12:15:18.257Z,999
2023-03-08T12:20:25.010Z,998
2023-03-08T12:25:29.623Z,998
2023-03-08T12:30:18.598Z,998
2023-03-08T12:35:24.665Z,998
2023-03-08T12:40:32.334Z,998
2023-03-08T12:45:19.885Z,998
2023-03-08T12:50:25.816Z,998
2023-03-08T12:55:32.046Z,998
2023-03-08T13:00:21.761Z,998
2023-03-08T13:05:26.743Z,998
2023-03-08T13:10:33.103Z,998
2023-03-08T13:15:22.170Z,998
2023-03-08T13:20:29.474Z,998
2023-03-08T13:25:16.996Z,997
2023-03-08T13:30:23.256Z,997
2023-03-08T13:35:29.011Z,997
2023-03-08T13:40:18.244Z,997
2023-03-08T13:45:24.359Z,997
2023-03-08T13:50:30.237Z,997
2023-03-08T13:55:19.321Z,997
2023-03-08T14:00:27.185Z,997
2023-03-08T14:05:31.633Z,997
2023-03-08T14:10:19.816Z,997
2023-03-08T14:15:25.910Z,997
2023-03-08T14:20:33.258Z,997
2023-03-08T14:25:21.044Z,997
2023-03-08T14:30:26.863Z,997
2023-03-08T14:35:33.246Z,997
2023-03-08T14:40:25.112Z,997
2023-03-08T14:45:27.926Z,997
2023-03-08T14:50:16.852Z,997
2023-03-08T14:55:22.919Z,997
2023-03-08T15:00:34.286Z,997
2023-03-08T15:05:28.709Z,996
2023-03-08T15:10:23.895Z,996
2023-03-08T15:15:29.864Z,996
2023-03-08T15:20:19.259Z,996
2023-03-08T15:25:25.436Z,996
2023-03-08T15:30:31.567Z,996
2023-03-08T15:35:20.469Z,996
2023-03-08T15:40:27.625Z,996
2023-03-08T15:45:32.554Z,996
2023-03-08T15:50:21.281Z,996
2023-03-08T15:55:27.243Z,996
2023-03-08T16:00:39.533Z,996
2023-03-08T16:05:22.462Z,996
2023-03-08T16:10:27.988Z,996
2023-03-08T16:15:16.911Z,996
2023-03-08T16:20:24.359Z,996
2023-03-08T16:25:31.352Z,996
2023-03-08T16:30:21.140Z,996
2023-03-08T16:35:24.569Z,996
2023-03-08T16:40:33.767Z,996
2023-03-08T16:45:20.000Z,996
2023-03-08T16:50:26.316Z,996
2023-03-08T16:55:32.473Z,996
2023-03-08T17:00:27.088Z,996
2023-03-08T17:05:26.285Z,996
2023-03-08T17:10:32.394Z,996
2023-03-08T17:15:20.841Z,996
2023-03-08T17:20:27.644Z,996
2023-03-08T17:25:33.441Z,996
2023-03-08T17:30:22.522Z,996
2023-03-08T17:35:28.520Z,996
2023-03-08T17:40:17.709Z,996
2023-03-08T17:45:23.922Z,996
2023-03-08T17:50:29.801Z,996
2023-03-08T17:55:18.667Z,996
2023-03-08T18:00:31.730Z,996
2023-03-08T18:05:30.641Z,996
2023-03-08T18:10:19.272Z,996
2023-03-08T18:15:25.479Z,996
2023-03-08T18:20:30.934Z,996
2023-03-08T18:25:19.617Z,996
2023-03-08T18:30:25.757Z,996
2023-03-08T18:35:31.900Z,996
2023-03-08T18:40:22.182Z,996
2023-03-08T18:45:26.859Z,996
2023-03-08T18:50:33.034Z,996
2023-03-08T18:55:21.970Z,996
2023-03-08T19:00:31.025Z,996
2023-03-08T19:05:16.470Z,996
2023-03-08T19:10:22.360Z,996
2023-03-08T19:15:28.711Z,996
2023-03-08T19:20:18.098Z,996
2023-03-08T19:25:23.996Z,996
2023-03-08T19:30:30.223Z,996
2023-03-08T19:35:19.115Z,996
2023-03-08T19:40:26.769Z,996
2023-03-08T19:45:31.316Z,996
2023-03-08T19:50:20.280Z,996
2023-03-08T19:55:26.401Z,996
2023-03-08T20:00:35.089Z,996
2023-03-08T20:05:21.168Z,996
2023-03-08T20:10:26.810Z,996
2023-03-08T20:15:32.862Z,996
2023-03-08T20:20:21.508Z,996
2023-03-08T20:25:27.554Z,996
2023-03-08T20:30:16.554Z,996
2023-03-08T20:35:23.987Z,996
2023-03-08T20:40:28.590Z,996
2023-03-08T20:45:17.762Z,996
2023-03-08T20:50:23.698Z,996
2023-03-08T20:55:29.882Z,996
2023-03-08T21:00:20.256Z,996
2023-03-08T21:05:27.178Z,996
2023-03-08T21:10:31.344Z,996
2023-03-08T21:15:20.620Z,996
2023-03-08T21:20:25.840Z,996
2023-03-08T21:25:32.045Z,996
2023-03-08T21:30:20.915Z,996
2023-03-08T21:35:27.137Z,996
2023-03-08T21:40:33.048Z,996
2023-03-08T21:45:22.201Z,996
2023-03-08T21:50:28.212Z,996
2023-03-08T21:55:17.115Z,996
2023-03-08T22:00:24.680Z,996
2023-03-08T22:05:29.062Z,996
2023-03-08T22:10:17.725Z,996
2023-03-08T22:15:23.652Z,996
2023-03-08T22:20:30.303Z,996
2023-03-08T22:25:19.136Z,996
2023-03-08T22:30:25.279Z,996
2023-03-08T22:35:31.307Z,996
2023-03-08T22:40:20.614Z,996
2023-03-08T22:45:26.544Z,996
2023-03-08T22:50:33.423Z,996
2023-03-08T22:55:21.482Z,996
2023-03-08T23:00:31.338Z,996
2023-03-08T23:05:33.654Z,996
2023-03-08T23:10:22.398Z,995
2023-03-08T23:15:28.262Z,995
2023-03-08T23:20:16.596Z,995
2023-03-08T23:25:22.558Z,995
2023-03-08T23:30:28.613Z,995
2023-03-08T23:35:17.751Z,995
2023-03-08T23:40:24.860Z,995
2023-03-08T23:45:29.785Z,995
2023-03-08T23:50:18.792Z,995
2023-03-08T23:55:24.837Z,995
